Bertrand Ruet

Bertrand Ruet

Statistiques 2026

  • Courses courues : 274
  • Nb de victoires : 11
  • Nb de places : 54
  • Écart gagnant : 12
  • Réussite à la gagne : 4%
  • Réussite à la place : 20%
Musique : 0a 4a 2a 5a 6a 2a 9a Da Da Da Da 5a 1a 5a Da 6a 4a 6a
DateRangCatégorieAlloc.Dist.HippodromeChevalRed. KmSpé.
11/04/10 D Trot 14 000€ 2 825m Lyon Parilly Salini Madrik Attelé
13/12/09 6 Trot 20 000€ 2 825m Lyon Parilly Quito Clayettois 1'18"6 Attelé
29/03/10 5 Trot 20 000€ 2 850m Lyon Parilly Scene d'Amour 1'20"1 Attelé lire

En retrait dans le parcours, a gagné des rangs pour finir.

24/09/11 4 Trot 20 000€ 2 850m Lyon Parilly Ulterior Charm 1'20"6 Attelé
24/09/11 3 Trot 25 000€ 2 850m Lyon Parilly Treizieme Jour 1'19"0 Attelé
24/09/11 4 Trot 35 000€ 2 850m Lyon Parilly Quiet du Chene 1'16"6 Attelé
30/09/11 D Mixte 25 000€ 2 800m Lyon Parilly Uncle Charm Attelé
30/09/11 7 Mixte 13 000€ 2 850m Lyon Parilly Titoune Creole 1'19"2 Attelé
30/09/11 5 Mixte 21 000€ 2 825m Lyon Parilly Quartz de Glyere 1'18"2 Attelé
30/09/11 8 Mixte 25 000€ 2 825m Lyon Parilly Quo Plan Sinclair 1'17"6 Attelé
09/10/11 8 Mixte 15 000€ 2 825m Lyon Parilly Terremer 1'23"2 Attelé
09/10/11 5 Mixte 15 000€ 2 825m Lyon Parilly Themis Airemme 1'21"4 Attelé
09/10/11 8 Mixte 20 000€ 2 000m Lyon Parilly Rubinski 1'16"7 Attelé
16/10/11 4 Mixte 20 000€ 2 000m Lyon Parilly Rebelle d'Acanthe 1'15"7 Attelé
19/10/11 7 Trot 23 000€ 2 825m Lyon Parilly Soitec le Fol 1'21"6 Attelé lire

Parti sur une faute, a ensuite patienté au sein du peloton puis n'a pu accélérer efficacement dans la phase finale.

19/10/11 1 Trot 26 000€ 2 800m Lyon Parilly Ungaro Jet 1'19"6 Attelé lire

Vite aux avant-postes, s'est montré le plus fort à la lutte.

19/10/11 6 Trot 30 000€ 2 825m Lyon Parilly Passerinette 1'18"6 Attelé lire

Attentiste au sein du peloton, a fourni un honorable effort final en retrait des premiers.

23/10/11 5 Mixte 16 000€ 2 850m Lyon Parilly Rubinski 1'18"3 Attelé
23/10/11 7 Mixte 25 000€ 2 825m Lyon Parilly Rebelle d'Acanthe 1'18"1 Attelé
01/11/11 D Trot 12 000€ 2 100m Lyon Parilly Vencedor Attelé
01/11/11 2 Trot 15 000€ 2 825m Lyon Parilly Ujean Barbes 1'19"7 Attelé
01/11/11 0 Trot 14 000€ 2 600m Lyon Parilly Totem de Touchyvon Attelé
01/11/11 5 Trot 16 000€ 2 825m Lyon Parilly Senior Villetot 1'19"4 Attelé
01/11/11 0 Trot 20 000€ 2 850m Lyon Parilly Recital du Fier Attelé
20/11/11 3 Mixte 40 000€ 2 850m Lyon Parilly Treizieme Jour 1'17"1 Attelé
20/11/11 3 Mixte 20 000€ 2 000m Lyon Parilly Petit Pierricais 1'16"0 Attelé
27/11/11 6 Trot 14 000€ 2 825m Lyon Parilly Urioka du Pressoir 1'21"5 Attelé
27/11/11 2 Trot 16 000€ 2 850m Lyon Parilly Senior Villetot 1'18"5 Attelé
04/12/11 8 Trot 16 000€ 2 825m Lyon Parilly Think More 1'20"4 Attelé
04/12/11 1 Trot 13 000€ 2 850m Lyon Parilly Uranus de Feline 1'20"2 Attelé
04/12/11 9 Trot 30 000€ 2 600m Lyon Parilly Neo Sinclair 1'16"9 Attelé
07/12/11 4 Trot 11 000€ 2 825m Lyon Parilly Skirev 1'19"1 Attelé
07/12/11 D Trot 25 000€ 1 609m Lyon Parilly Optimum Jiel Attelé
11/12/11 0 Trot 16 000€ 2 100m Lyon Parilly Solo d'Occagnes Attelé
11/12/11 2 Trot 16 000€ 2 100m Lyon Parilly Simao Tejy 1'17"7 Attelé
26/03/12 D Trot 18 000€ 2 850m Lyon Parilly Telma de Touchyvon Attelé
26/03/12 5 Trot 18 000€ 2 875m Lyon Parilly Royal Mourotais 1'17"2 Attelé
01/04/25 D Trot 18 000€ 2 000m Lyon Parilly Monsieur de Sana Attelé
01/04/25 D Trot 18 000€ 2 850m Lyon Parilly La Tempete Attelé
01/04/25 D Trot 21 000€ 2 000m Lyon Parilly Kelina Supreme Attelé lire

Jamais en course, a été disqualifiée à la sortie du tournant final.

01/04/25 8 Trot 28 000€ 2 000m Lyon Parilly Jeny Love Jephi 1'14"3 Attelé lire

N'a été qu'une simple figurante au sein du peloton.

01/04/25 3 Trot 21 000€ 2 000m Lyon Parilly Knowledge de Jema 1'14"6 Attelé lire

Très vite à la pointe du combat, a bien tenu sa partie jusqu'à la fin.

01/04/25 6 Trot 21 000€ 2 875m Lyon Parilly Judyra Boissiere 1'15"8 Attelé
01/04/25 8 Trot 27 000€ 2 875m Lyon Parilly Krak de Bussieres 1'14"8 Attelé
10/04/25 4 Trot 15 000€ 2 600m Lyon Parilly Lea d'Ep 1'17"4 Attelé
10/04/25 7 Trot 16 000€ 2 600m Lyon Parilly Kebir Joli 1'16"9 Attelé
10/04/25 2 Trot 16 000€ 2 600m Lyon Parilly Kelina Supreme 1'15"7 Attelé
10/04/25 4 Trot 21 000€ 2 600m Lyon Parilly Ischia Saint Clair 1'15"3 Attelé
20/04/25 1 Trot 15 000€ 2 100m Lyon Parilly Michelangelo Zen 1'18"4 Attelé
20/04/25 D Trot 15 000€ 2 100m Lyon Parilly Lorraine Sweety Attelé